createdAt,value
2022-10-28T00:01:49.013Z,13.31
2022-10-28T00:04:18.147Z,13.28
2022-10-28T00:06:47.559Z,13.23
2022-10-28T00:09:16.896Z,13.32
2022-10-28T00:11:47.631Z,13.31
2022-10-28T00:14:16.713Z,13.22
2022-10-28T00:16:47.845Z,13.10
2022-10-28T00:19:17.053Z,13.05
2022-10-28T00:21:46.960Z,13.02
2022-10-28T00:24:16.107Z,13.01
2022-10-28T00:26:46.177Z,12.99
2022-10-28T00:29:17.264Z,12.96
2022-10-28T00:31:47.295Z,12.95
2022-10-28T00:34:17.290Z,12.96
2022-10-28T00:36:47.132Z,12.93
2022-10-28T00:39:16.787Z,12.91
2022-10-28T00:41:47.311Z,12.89
2022-10-28T00:44:35.241Z,12.86
2022-10-28T00:47:06.193Z,12.84
2022-10-28T00:49:36.608Z,12.81
2022-10-28T00:52:06.661Z,12.81
2022-10-28T00:54:35.740Z,12.79
2022-10-28T00:57:05.842Z,12.77
2022-10-28T00:59:35.650Z,12.74
2022-10-28T01:02:07.266Z,12.73
2022-10-28T01:04:36.501Z,12.68
2022-10-28T01:07:05.873Z,12.66
2022-10-28T01:09:35.022Z,12.66
2022-10-28T01:12:05.210Z,12.64
2022-10-28T01:14:38.599Z,12.63
2022-10-28T01:17:17.624Z,12.61
2022-10-28T01:20:05.198Z,12.61
2022-10-28T01:22:55.116Z,12.61
2022-10-28T01:26:02.359Z,12.56
2022-10-28T01:28:44.585Z,12.54
2022-10-28T01:31:17.322Z,12.54
2022-10-28T01:33:48.920Z,12.55
2022-10-28T01:36:19.153Z,12.53
2022-10-28T01:38:51.073Z,12.49
2022-10-28T01:41:22.405Z,12.50
2022-10-28T01:43:52.080Z,12.48
2022-10-28T01:46:23.471Z,12.47
2022-10-28T01:48:53.599Z,12.46
2022-10-28T01:51:23.578Z,12.50
2022-10-28T01:53:53.423Z,12.51
2022-10-28T01:56:23.337Z,12.65
2022-10-28T01:58:52.627Z,12.70
2022-10-28T02:01:23.229Z,12.73
2022-10-28T02:03:53.345Z,12.67
2022-10-28T02:06:23.352Z,12.56
2022-10-28T02:08:57.888Z,12.56
2022-10-28T02:11:32.652Z,12.54
2022-10-28T02:14:04.685Z,12.57
2022-10-28T02:16:40.260Z,12.59
2022-10-28T02:19:11.754Z,12.60
2022-10-28T02:21:53.271Z,12.61
2022-10-28T02:24:30.699Z,12.72
2022-10-28T02:27:04.610Z,12.57
2022-10-28T02:29:37.473Z,12.66
2022-10-28T02:32:09.886Z,12.74
2022-10-28T02:34:40.688Z,12.75
2022-10-28T02:37:12.719Z,12.82
2022-10-28T02:39:45.956Z,12.77
2022-10-28T02:42:19.005Z,12.71
2022-10-28T02:44:49.306Z,12.62
2022-10-28T02:47:20.851Z,12.59
2022-10-28T02:49:51.539Z,12.33
2022-10-28T02:52:20.956Z,11.99
2022-10-28T02:54:51.611Z,12.51
2022-10-28T02:57:21.378Z,12.47
2022-10-28T02:59:53.217Z,12.38
2022-10-28T03:02:24.098Z,12.56
2022-10-28T03:04:53.796Z,12.46
2022-10-28T03:07:22.993Z,12.48
2022-10-28T03:09:52.568Z,12.53
2022-10-28T03:12:21.632Z,12.58
2022-10-28T03:14:52.477Z,12.50
2022-10-28T03:17:21.627Z,12.47
2022-10-28T03:19:54.749Z,12.35
2022-10-28T03:23:23.435Z,12.28
2022-10-28T03:55:59.749Z,12.42
2022-10-28T03:58:29.233Z,12.42
2022-10-28T04:00:58.663Z,12.43
2022-10-28T04:03:28.126Z,12.46
2022-10-28T04:05:57.186Z,12.46
2022-10-28T04:08:26.653Z,12.45
2022-10-28T04:10:55.699Z,12.48
2022-10-28T04:13:26.709Z,12.48
2022-10-28T04:15:55.883Z,12.48
2022-10-28T04:18:25.313Z,12.49
2022-10-28T04:20:54.731Z,12.51
2022-10-28T04:23:27.021Z,12.51
2022-10-28T04:25:56.280Z,12.49
2022-10-28T04:28:27.468Z,12.51
2022-10-28T04:31:07.166Z,12.50
2022-10-28T04:33:41.268Z,12.52
2022-10-28T04:36:16.689Z,12.53
2022-10-28T04:38:53.081Z,12.56
2022-10-28T04:41:45.011Z,12.59
2022-10-28T04:44:28.629Z,12.57
2022-10-28T04:47:32.025Z,12.61
2022-10-28T04:50:03.536Z,12.68
2022-10-28T04:52:35.647Z,12.69
2022-10-28T04:55:06.831Z,12.71
2022-10-28T04:57:41.734Z,12.73
2022-10-28T05:00:47.045Z,12.76
2022-10-28T05:15:44.188Z,12.90
2022-10-28T05:18:23.539Z,12.93
2022-10-28T05:21:05.090Z,12.98
2022-10-28T05:23:36.129Z,13.07
2022-10-28T05:26:23.268Z,13.06
2022-10-28T05:29:01.661Z,13.09
2022-10-28T05:31:41.038Z,13.12
2022-10-28T05:34:16.645Z,13.18
2022-10-28T06:01:42.857Z,13.43
2022-10-28T06:20:13.157Z,13.55
2022-10-28T06:28:59.233Z,13.56
2022-10-28T06:38:02.877Z,13.60
2022-10-28T06:40:36.535Z,13.66
2022-10-28T06:47:25.934Z,13.68
2022-10-28T06:50:04.689Z,13.73
2022-10-28T06:53:24.420Z,13.77
2022-10-28T06:55:55.570Z,13.75
2022-10-28T06:58:25.180Z,13.73
2022-10-28T07:01:06.175Z,13.78
2022-10-28T07:03:54.141Z,13.83
2022-10-28T07:09:43.392Z,13.85
2022-10-28T07:12:14.456Z,13.88
2022-10-28T07:14:44.048Z,13.93
2022-10-28T07:17:59.909Z,13.96
2022-10-28T07:23:21.537Z,14.00
2022-10-28T07:26:15.708Z,13.98
2022-10-28T07:29:14.991Z,13.98
2022-10-28T07:31:46.698Z,14.04
2022-10-28T07:34:16.046Z,14.13
2022-10-28T07:36:45.157Z,14.15
2022-10-28T07:39:14.729Z,14.17
2022-10-28T07:41:43.997Z,14.19
2022-10-28T07:45:01.997Z,14.23
2022-10-28T07:47:48.933Z,14.21
2022-10-28T07:55:23.089Z,14.39
2022-10-28T07:58:59.657Z,14.44
2022-10-28T08:01:33.202Z,14.53
2022-10-28T08:04:02.620Z,14.54
2022-10-28T08:06:31.731Z,14.56
2022-10-28T08:16:22.460Z,14.65
2022-10-28T08:18:53.702Z,14.72
2022-10-28T08:21:22.734Z,14.52
2022-10-28T08:23:52.157Z,14.73
2022-10-28T08:26:21.263Z,14.77
2022-10-28T08:28:52.902Z,14.80
2022-10-28T08:31:22.038Z,14.76
2022-10-28T08:33:51.504Z,14.86
2022-10-28T08:36:22.028Z,14.80
2022-10-28T08:38:51.340Z,14.88
2022-10-28T08:41:23.392Z,14.99
2022-10-28T08:43:57.861Z,15.04
2022-10-28T08:46:29.755Z,15.01
2022-10-28T08:48:59.242Z,15.04
2022-10-28T08:51:44.341Z,15.12
2022-10-28T08:54:14.691Z,15.10
2022-10-28T08:56:46.250Z,15.17
2022-10-28T08:59:15.847Z,15.24
2022-10-28T09:02:22.376Z,15.26
2022-10-28T09:04:59.786Z,15.30
2022-10-28T09:07:55.279Z,15.31
2022-10-28T09:10:57.101Z,15.46
2022-10-28T09:13:31.479Z,15.46
2022-10-28T09:16:02.880Z,15.51
2022-10-28T09:18:43.020Z,15.58
2022-10-28T09:21:14.801Z,15.60
2022-10-28T09:23:51.715Z,15.63
2022-10-28T09:26:30.985Z,15.75
2022-10-28T09:29:06.030Z,15.71
2022-10-28T09:31:40.068Z,15.75
2022-10-28T09:34:29.909Z,15.85
2022-10-28T09:37:00.370Z,15.89
2022-10-28T09:39:30.939Z,15.91
2022-10-28T09:42:02.318Z,15.98
2022-10-28T09:44:34.353Z,15.87
2022-10-28T09:47:03.936Z,15.92
2022-10-28T09:49:34.875Z,15.85
2022-10-28T09:52:05.957Z,15.92
2022-10-28T09:54:38.996Z,15.95
2022-10-28T10:11:47.284Z,16.42
2022-10-28T10:14:24.167Z,16.44
2022-10-28T10:17:34.107Z,16.67
2022-10-28T10:20:53.311Z,16.62
2022-10-28T10:23:24.446Z,16.64
2022-10-28T10:26:11.132Z,16.64
2022-10-28T10:28:58.777Z,16.45
2022-10-28T10:31:30.207Z,16.32
2022-10-28T10:34:48.513Z,16.57
2022-10-28T10:37:21.465Z,16.84
2022-10-28T10:40:03.676Z,16.82
2022-10-28T10:42:46.629Z,16.76
2022-10-28T10:45:52.496Z,16.90
2022-10-28T10:48:28.363Z,16.98
2022-10-28T10:50:58.104Z,17.06
2022-10-28T10:53:27.653Z,17.10
2022-10-28T10:55:57.938Z,17.17
2022-10-28T10:58:28.306Z,17.12
2022-10-28T11:00:57.772Z,17.21
2022-10-28T11:03:29.371Z,17.03
2022-10-28T11:06:22.637Z,16.78
2022-10-28T11:08:48.485Z,16.97
2022-10-28T11:11:20.466Z,17.17
2022-10-28T11:13:50.029Z,17.34
2022-10-28T11:16:20.144Z,17.41
2022-10-28T11:18:51.240Z,17.37
2022-10-28T11:23:56.154Z,17.44
2022-10-28T11:27:28.605Z,17.50
2022-10-28T11:29:57.208Z,17.41
2022-10-28T11:33:08.258Z,17.35
2022-10-28T11:36:18.726Z,17.29
2022-10-28T11:39:17.595Z,17.49
2022-10-28T11:41:53.389Z,17.42
2022-10-28T11:44:26.341Z,17.43
2022-10-28T11:47:02.526Z,17.39
2022-10-28T11:49:43.794Z,17.47
2022-10-28T11:52:21.232Z,17.68
2022-10-28T11:55:08.581Z,17.63
2022-10-28T11:57:44.881Z,17.68
2022-10-28T12:00:42.905Z,17.83
2022-10-28T12:03:55.225Z,17.85
2022-10-28T12:06:25.839Z,17.77
2022-10-28T12:09:03.388Z,17.80
2022-10-28T12:11:41.426Z,18.06
2022-10-28T12:14:12.314Z,18.17
2022-10-28T12:16:42.298Z,18.14
2022-10-28T12:19:12.926Z,18.31
2022-10-28T12:21:43.335Z,18.10
2022-10-28T12:24:14.773Z,18.21
2022-10-28T12:26:45.101Z,18.28
2022-10-28T12:29:16.206Z,18.16
2022-10-28T12:31:57.169Z,18.20
2022-10-28T12:34:33.888Z,18.38
2022-10-28T12:37:06.876Z,18.49
2022-10-28T12:39:38.925Z,18.62
2022-10-28T12:42:11.310Z,18.65
2022-10-28T12:44:40.388Z,18.91
2022-10-28T12:47:14.285Z,19.09
2022-10-28T12:49:51.293Z,19.11
2022-10-28T12:52:38.155Z,19.17
2022-10-28T12:55:12.561Z,19.45
2022-10-28T12:57:42.492Z,19.54
2022-10-28T13:00:16.096Z,19.56
2022-10-28T13:02:46.912Z,19.71
2022-10-28T13:05:21.735Z,19.79
2022-10-28T13:07:58.777Z,19.76
2022-10-28T13:10:30.823Z,19.81
2022-10-28T13:13:02.145Z,19.91
2022-10-28T13:15:49.488Z,20.14
2022-10-28T13:18:29.071Z,20.20
2022-10-28T13:21:01.716Z,20.47
2022-10-28T13:23:31.503Z,20.59
2022-10-28T13:26:04.370Z,20.55
2022-10-28T13:28:34.640Z,20.67
2022-10-28T13:31:04.361Z,20.81
2022-10-28T13:33:34.596Z,20.88
2022-10-28T13:39:40.407Z,21.00
2022-10-28T13:42:28.079Z,21.13
2022-10-28T13:45:09.610Z,21.01
2022-10-28T13:47:42.296Z,21.08
2022-10-28T13:50:42.293Z,20.99
2022-10-28T13:53:41.933Z,20.95
2022-10-28T13:56:26.345Z,21.09
2022-10-28T13:59:20.550Z,21.11
2022-10-28T14:05:20.444Z,21.11
2022-10-28T14:08:11.431Z,20.99
2022-10-28T14:10:56.762Z,20.90
2022-10-28T14:14:07.716Z,20.93
2022-10-28T14:17:02.366Z,20.84
2022-10-28T14:20:10.679Z,20.44
2022-10-28T14:22:57.267Z,20.63
2022-10-28T14:26:00.014Z,20.66
2022-10-28T14:29:03.187Z,20.48
2022-10-28T14:32:08.041Z,19.94
2022-10-28T14:34:52.332Z,19.92
2022-10-28T14:37:39.912Z,19.93
2022-10-28T14:40:24.383Z,19.92
2022-10-28T14:43:25.150Z,19.49
2022-10-28T14:46:01.190Z,19.67
2022-10-28T14:48:49.324Z,19.72
2022-10-28T14:51:19.276Z,19.40
2022-10-28T14:53:48.791Z,19.53
2022-10-28T14:56:21.178Z,19.26
2022-10-28T14:58:50.780Z,19.42
2022-10-28T15:01:23.562Z,19.10
2022-10-28T15:03:54.823Z,19.03
2022-10-28T15:06:32.266Z,19.04
2022-10-28T15:09:25.607Z,18.90
2022-10-28T15:11:59.127Z,18.90
2022-10-28T15:14:30.867Z,18.64
2022-10-28T15:17:00.695Z,19.15
2022-10-28T15:19:30.636Z,19.07
2022-10-28T15:22:03.769Z,18.85
2022-10-28T15:24:33.446Z,19.09
2022-10-28T15:27:04.607Z,19.21
2022-10-28T15:29:34.171Z,19.14
2022-10-28T15:32:12.501Z,19.13
2022-10-28T15:34:42.404Z,19.09
2022-10-28T15:37:11.701Z,19.04
2022-10-28T15:39:41.639Z,19.02
2022-10-28T15:45:12.559Z,18.95
2022-10-28T15:47:41.960Z,18.93
2022-10-28T15:50:32.425Z,18.89
2022-10-28T15:53:25.612Z,18.85
2022-10-28T15:56:09.671Z,18.81
2022-10-28T16:01:56.486Z,18.66
2022-10-28T16:04:46.716Z,18.61
2022-10-28T16:07:16.072Z,18.59
2022-10-28T16:09:46.771Z,18.57
2022-10-28T16:12:17.115Z,18.55
2022-10-28T16:14:50.824Z,18.54
2022-10-28T16:17:23.327Z,18.48
2022-10-28T16:19:53.514Z,18.44
2022-10-28T16:22:22.908Z,18.38
2022-10-28T16:24:51.991Z,18.43
2022-10-28T16:27:36.120Z,18.39
2022-10-28T16:30:34.816Z,18.36
2022-10-28T16:33:09.130Z,18.35
2022-10-28T16:35:48.940Z,18.31
2022-10-28T16:38:21.352Z,18.32
2022-10-28T16:41:05.115Z,18.26
2022-10-28T16:44:22.914Z,18.25
2022-10-28T16:47:32.300Z,18.19
2022-10-28T16:50:29.617Z,18.16
2022-10-28T16:52:59.011Z,18.12
2022-10-28T16:55:28.393Z,18.11
2022-10-28T16:57:57.713Z,18.07
2022-10-28T17:00:29.332Z,18.00
2022-10-28T17:04:35.771Z,18.00
2022-10-28T17:06:42.397Z,17.97
2022-10-28T17:09:17.538Z,17.93
2022-10-28T17:11:48.769Z,17.91
2022-10-28T17:14:20.821Z,17.86
2022-10-28T17:16:51.017Z,17.82
2022-10-28T17:19:20.225Z,17.78
2022-10-28T17:21:52.221Z,17.77
2022-10-28T17:24:24.182Z,17.77
2022-10-28T17:27:02.441Z,17.74
2022-10-28T17:29:31.717Z,17.71
2022-10-28T17:32:03.663Z,17.70
2022-10-28T17:34:33.035Z,17.65
2022-10-28T17:37:17.257Z,17.65
2022-10-28T17:40:07.242Z,17.62
2022-10-28T17:43:26.337Z,17.59
2022-10-28T17:53:46.737Z,17.48
2022-10-28T17:56:38.984Z,17.48
2022-10-28T17:59:29.607Z,17.43
2022-10-28T18:02:56.269Z,17.39
2022-10-28T18:06:03.465Z,17.36
2022-10-28T18:08:37.629Z,17.33
2022-10-28T18:12:04.158Z,17.29
2022-10-28T18:15:27.380Z,17.24
2022-10-28T18:18:26.789Z,17.22
2022-10-28T18:24:54.307Z,17.17
2022-10-28T18:27:24.020Z,17.12
2022-10-28T18:29:53.031Z,17.11
2022-10-28T18:32:24.200Z,17.06
2022-10-28T18:34:54.746Z,17.05
2022-10-28T18:38:05.826Z,16.99
2022-10-28T18:40:35.151Z,16.98
2022-10-28T18:43:40.652Z,16.96
2022-10-28T18:46:09.313Z,16.85
2022-10-28T18:48:39.473Z,16.84
2022-10-28T18:51:12.666Z,16.80
2022-10-28T18:53:42.935Z,16.91
2022-10-28T18:56:12.663Z,16.76
2022-10-28T18:58:41.865Z,16.83
2022-10-28T19:01:12.546Z,16.66
2022-10-28T19:03:41.954Z,16.70
2022-10-28T19:06:13.703Z,16.68
2022-10-28T19:08:43.166Z,16.59
2022-10-28T19:11:13.605Z,16.51
2022-10-28T19:13:44.153Z,16.47
2022-10-28T19:18:47.734Z,16.40
2022-10-28T19:21:18.554Z,16.37
2022-10-28T19:44:09.839Z,16.10
2022-10-28T19:46:44.034Z,16.04
2022-10-28T20:23:24.349Z,15.82
2022-10-28T20:25:53.873Z,15.81
2022-10-28T20:28:23.524Z,15.78
2022-10-28T20:30:59.616Z,15.83
2022-10-28T20:33:29.420Z,15.82
2022-10-28T20:35:58.564Z,15.73
2022-10-28T20:38:29.392Z,15.79
2022-10-28T20:40:59.255Z,15.69
2022-10-28T20:43:34.418Z,15.69
2022-10-28T20:46:17.466Z,15.71
2022-10-28T20:48:49.165Z,15.69
2022-10-28T20:51:18.256Z,15.69
2022-10-28T20:53:49.088Z,15.67
2022-10-28T20:56:18.978Z,15.67
2022-10-28T20:58:48.328Z,15.67
2022-10-28T21:01:18.930Z,15.62
2022-10-28T21:03:49.014Z,15.62
2022-10-28T21:06:18.287Z,15.59
2022-10-28T21:08:49.042Z,15.56
2022-10-28T21:11:18.682Z,15.54
2022-10-28T21:13:56.597Z,15.51
2022-10-28T21:16:25.743Z,15.46
2022-10-28T21:18:55.988Z,15.43
2022-10-28T21:21:25.312Z,15.42
2022-10-28T21:23:58.102Z,15.42
2022-10-28T21:26:33.306Z,15.37
2022-10-28T21:29:05.464Z,15.30
2022-10-28T21:31:38.734Z,15.28
2022-10-28T21:34:11.458Z,15.25
2022-10-28T21:36:43.843Z,15.22
2022-10-28T21:39:14.765Z,15.22
2022-10-28T21:41:44.628Z,15.21
2022-10-28T21:44:14.442Z,15.18
2022-10-28T21:46:43.874Z,15.14
2022-10-28T21:49:16.174Z,15.12
2022-10-28T21:51:45.498Z,15.11
2022-10-28T21:54:29.759Z,15.12
2022-10-28T21:57:07.534Z,15.09
2022-10-28T21:59:47.187Z,15.08
2022-10-28T22:02:24.064Z,15.06
2022-10-28T22:04:56.883Z,15.05
2022-10-28T22:07:28.179Z,15.02
2022-10-28T22:09:57.628Z,14.98
2022-10-28T22:12:28.263Z,14.99
2022-10-28T22:14:57.782Z,14.95
2022-10-28T22:17:27.014Z,14.95
2022-10-28T22:19:56.213Z,14.95
2022-10-28T22:23:11.105Z,14.96
2022-10-28T22:25:42.130Z,14.94
2022-10-28T22:28:19.882Z,14.95
2022-10-28T22:30:49.208Z,14.92
2022-10-28T22:33:20.434Z,14.92
2022-10-28T22:36:00.634Z,14.91
2022-10-28T22:39:22.180Z,14.88
2022-10-28T22:42:31.828Z,14.86
2022-10-28T22:45:53.744Z,14.86
2022-10-28T22:49:12.114Z,14.83
2022-10-28T23:05:25.424Z,14.60
2022-10-28T23:09:02.377Z,14.63
2022-10-28T23:11:35.753Z,14.65
2022-10-28T23:14:32.752Z,14.65
2022-10-28T23:17:11.621Z,14.64
2022-10-28T23:25:15.623Z,14.67
2022-10-28T23:27:09.929Z,14.64
2022-10-28T23:29:39.158Z,14.63
2022-10-28T23:32:08.757Z,14.62
2022-10-28T23:34:41.991Z,14.61
2022-10-28T23:37:11.516Z,14.64
2022-10-28T23:39:54.011Z,14.57
2022-10-28T23:42:27.935Z,14.58
2022-10-28T23:45:00.045Z,14.58
2022-10-28T23:47:34.446Z,14.66
2022-10-28T23:50:03.948Z,14.72
2022-10-28T23:52:39.073Z,14.74
2022-10-28T23:55:08.931Z,14.63
2022-10-28T23:57:39.988Z,14.57
